Time;durP1;ratioP1;P1;durP2;ratioP2;P2;SDS_P1;SDS_P2;PMS_P1;PMS_P2;Temp;Humidity;BMP_temperature;BMP_pressure;BME280_temperature;BME280_humidity;BME280_pressure;Samples;Min_cycle;Max_cycle;Signal;HPM_P1;HPM_P2
2023/01/11 00:01:41;;;;;;;8.90;1.33;;;;;;;10.17;100.00;100163.44;5094821;28;20035;-75
2023/01/11 00:04:06;;;;;;;7.35;1.15;;;;;;;10.16;100.00;100159.84;5093434;28;20031;-75
2023/01/11 00:06:31;;;;;;;8.23;1.30;;;;;;;10.17;100.00;100160.69;5091411;28;20036;-75
2023/01/11 00:08:58;;;;;;;5.75;1.27;;;;;;;10.16;100.00;100164.59;5095346;28;20028;-75
2023/01/11 00:11:24;;;;;;;8.55;1.58;;;;;;;10.18;100.00;100167.91;5094486;28;20115;-75
2023/01/11 00:13:49;;;;;;;7.60;1.45;;;;;;;10.16;100.00;100164.59;5089173;28;20028;-75
2023/01/11 00:16:15;;;;;;;5.78;1.35;;;;;;;10.19;100.00;100172.31;5095665;28;20055;-75
2023/01/11 00:18:41;;;;;;;7.03;1.30;;;;;;;10.16;100.00;100164.59;5077347;28;20028;-75
2023/01/11 00:21:06;;;;;;;7.32;1.42;;;;;;;10.17;100.00;100167.06;5077637;28;20039;-75
2023/01/11 00:23:35;;;;;;;6.97;1.20;;;;;;;10.16;100.00;100175.69;5094302;28;20024;-75
2023/01/11 00:26:05;;;;;;;6.93;1.20;;;;;;;10.17;100.00;100182.88;5060351;28;20032;-75
2023/01/11 00:28:31;;;;;;;8.00;1.25;;;;;;;10.16;100.00;100179.28;5095476;28;21450;-75
2023/01/11 00:30:56;;;;;;;7.90;1.40;;;;;;;10.19;100.00;100184.22;5077497;28;20112;-75
2023/01/11 00:33:22;;;;;;;4.45;0.93;;;;;;;10.19;100.00;100183.41;5094170;28;20111;-75
2023/01/11 00:35:50;;;;;;;5.82;1.27;;;;;;;10.18;100.00;100190.09;5095743;28;20452;-75
2023/01/11 00:38:42;;;;;;;4.18;0.98;;;;;;;10.17;100.00;100185.66;5084537;28;20400;-75
2023/01/11 00:47:55;;;;;;;4.40;0.90;;;;;;;10.18;100.00;100188.16;5094093;28;20028;-75
2023/01/11 00:49:14;;;;;;;2.80;0.98;;;;;;;10.15;100.00;100207.34;5094229;28;20035;-75
2023/01/11 00:51:40;;;;;;;6.90;1.35;;;;;;;10.15;100.00;100207.34;5093852;28;20024;-75
2023/01/11 00:54:05;;;;;;;6.28;1.23;;;;;;;10.17;100.00;100211.47;5094818;28;20300;-75
2023/01/11 00:56:31;;;;;;;4.43;0.90;;;;;;;10.15;100.00;100219.28;5095067;28;20028;-75
2023/01/11 00:58:56;;;;;;;5.00;1.17;;;;;;;10.15;100.00;100205.41;5095122;28;20035;-75
2023/01/11 01:01:21;;;;;;;5.53;1.00;;;;;;;10.15;100.00;100227.59;5095122;28;20047;-75
2023/01/11 01:03:47;;;;;;;5.88;1.40;;;;;;;10.17;100.00;100235.59;5092350;28;20028;-75
2023/01/11 01:06:12;;;;;;;7.32;1.23;;;;;;;10.16;100.00;100228.41;5089547;28;20085;-75
2023/01/11 01:08:38;;;;;;;6.88;1.23;;;;;;;10.15;100.00;100226.78;5093662;28;20035;-75
2023/01/11 01:11:03;;;;;;;4.10;1.00;;;;;;;10.13;100.00;100229.00;5093627;28;20035;-75
2023/01/11 01:16:13;;;;;;;3.90;1.10;;;;;;;10.13;100.00;100226.25;5081978;28;20444;-75
2023/01/11 01:18:38;;;;;;;3.38;1.25;;;;;;;10.12;100.00;100235.69;5096719;28;20039;-75
2023/01/11 01:21:04;;;;;;;5.28;1.08;;;;;;;10.13;100.00;100231.78;5099066;28;20404;-75
2023/01/11 01:23:29;;;;;;;8.52;1.20;;;;;;;10.13;100.00;100229.00;5092877;28;20024;-75
2023/01/11 01:25:55;;;;;;;6.82;1.10;;;;;;;10.10;100.00;100240.72;5098518;28;20032;-75
2023/01/11 01:28:21;;;;;;;6.30;1.10;;;;;;;10.10;100.00;100252.63;5097583;28;20035;-75
2023/01/11 01:30:52;;;;;;;6.97;1.75;;;;;;;10.08;100.00;100254.88;5097642;28;20035;-75
2023/01/11 01:33:18;;;;;;;5.82;1.38;;;;;;;10.09;100.00;100256.53;5098679;28;20066;-75
2023/01/11 01:35:43;;;;;;;9.23;1.67;;;;;;;10.05;100.00;100247.13;5097420;28;20484;-75
2023/01/11 01:38:08;;;;;;;7.40;1.27;;;;;;;10.04;100.00;100248.28;5097226;28;20048;-75
2023/01/11 01:40:40;;;;;;;7.90;1.30;;;;;;;10.04;100.00;100238.00;5097058;28;20035;-75
2023/01/11 01:43:09;;;;;;;7.90;1.50;;;;;;;10.03;100.00;100253.00;5097521;28;20031;-75
2023/01/11 01:45:35;;;;;;;7.53;1.30;;;;;;;10.03;100.00;100253.00;5087531;28;20032;-75
2023/01/11 01:48:01;;;;;;;10.15;1.40;;;;;;;9.99;100.00;100265.81;5097727;28;20043;-75
2023/01/11 01:50:36;;;;;;;7.43;1.10;;;;;;;9.97;100.00;100276.38;5080472;28;20050;-75
2023/01/11 01:53:07;;;;;;;4.45;1.10;;;;;;;9.95;100.00;100281.41;5098395;28;20843;-75
2023/01/11 01:55:37;;;;;;;5.75;1.23;;;;;;;9.94;100.00;100296.38;5097001;28;20032;-75
2023/01/11 01:58:06;;;;;;;12.13;1.85;;;;;;;9.93;100.00;100294.72;5083416;28;20020;-75
2023/01/11 02:00:32;;;;;;;11.63;1.50;;;;;;;9.90;100.00;100289.78;5077002;28;20029;-75
2023/01/11 02:02:57;;;;;;;8.50;1.63;;;;;;;9.89;100.00;100315.88;5097427;28;20028;-74
2023/01/11 02:05:23;;;;;;;8.70;1.50;;;;;;;9.88;100.00;100311.44;5079095;28;20024;-75
2023/01/11 02:07:50;;;;;;;11.90;1.42;;;;;;;9.86;100.00;100321.97;5098351;28;20388;-75
2023/01/11 02:10:19;;;;;;;16.90;1.70;;;;;;;9.84;100.00;100329.78;5096954;28;20176;-75
2023/01/11 02:12:59;;;;;;;9.68;1.60;;;;;;;9.82;100.00;100337.56;5093342;28;20125;-75
2023/01/11 02:15:25;;;;;;;13.60;1.65;;;;;;;9.80;100.00;100345.34;5096890;28;20085;-75
2023/01/11 02:17:50;;;;;;;11.95;1.83;;;;;;;9.78;100.00;100344.84;5097144;28;20020;-75
2023/01/11 02:20:28;;;;;;;24.95;2.58;;;;;;;9.75;100.00;100346.25;5063240;28;20028;-75
2023/01/11 02:23:06;;;;;;;13.45;1.67;;;;;;;9.72;100.00;100357.06;5097717;28;20061;-75
2023/01/11 02:25:38;;;;;;;11.90;2.00;;;;;;;9.69;100.00;100354.88;5097532;28;20032;-75
2023/01/11 02:28:25;;;;;;;11.55;1.98;;;;;;;9.65;100.00;100362.16;5097491;28;20024;-75
2023/01/11 02:31:16;;;;;;;10.90;1.80;;;;;;;9.59;100.00;100364.97;5092185;28;20361;-75
2023/01/11 02:33:47;;;;;;;16.50;1.90;;;;;;;9.57;100.00;100369.16;5096239;28;20044;-75
2023/01/11 02:36:57;;;;;;;13.27;1.85;;;;;;;9.54;100.00;100383.59;5097525;28;20176;-75
2023/01/11 02:39:49;;;;;;;14.52;1.83;;;;;;;9.46;100.00;100381.44;5072472;28;20104;-75
2023/01/11 02:45:25;;;;;;;12.82;1.73;;;;;;;9.39;100.00;100387.31;5086713;28;20533;-73
2023/01/11 02:48:14;;;;;;;15.45;2.30;;;;;;;9.34;100.00;100385.41;5094918;28;20722;-73
2023/01/11 02:51:04;;;;;;;22.70;2.45;;;;;;;9.26;100.00;100401.84;5094676;28;20421;-73
2023/01/11 02:53:35;;;;;;;12.68;1.70;;;;;;;9.24;100.00;100404.06;5038672;28;20440;-72
2023/01/11 02:56:06;;;;;;;16.98;2.53;;;;;;;9.20;100.00;100408.53;5078126;28;20024;-73
2023/01/11 02:58:33;;;;;;;16.50;2.00;;;;;;;9.15;100.00;100415.75;5068458;28;20063;-72
2023/01/11 03:00:58;;;;;;;16.55;2.38;;;;;;;9.09;100.00;100424.38;5057409;28;20032;-72
2023/01/11 03:03:26;;;;;;;11.02;1.63;;;;;;;9.04;100.00;100427.19;5060931;28;20040;-72
2023/01/11 03:06:01;;;;;;;19.52;2.33;;;;;;;8.97;100.00;100429.41;5056824;28;20028;-73
2023/01/11 03:09:04;;;;;;;17.23;2.20;;;;;;;8.93;100.00;100430.00;5077382;28;20423;-73
2023/01/11 03:14:21;;;;;;;12.40;2.40;;;;;;;8.86;100.00;100434.19;5094377;28;20830;-73
2023/01/11 03:17:09;;;;;;;11.32;1.85;;;;;;;8.81;100.00;100434.22;5079074;28;20418;-72
2023/01/11 03:19:41;;;;;;;13.57;2.45;;;;;;;8.76;100.00;100420.41;5087741;28;20044;-73
2023/01/11 03:22:11;;;;;;;16.70;2.08;;;;;;;8.68;100.00;100425.41;5096549;28;20178;-73
2023/01/11 03:24:42;;;;;;;15.45;1.95;;;;;;;8.66;100.00;100419.34;5090794;28;20032;-73
2023/01/11 03:27:37;;;;;;;17.42;3.08;;;;;;;8.63;100.00;100427.38;5078847;28;20096;-73
2023/01/11 03:30:16;;;;;;;12.30;1.98;;;;;;;8.59;100.00;100429.06;5095214;28;20028;-73
2023/01/11 03:33:12;;;;;;;11.90;2.30;;;;;;;8.54;100.00;100424.38;5079239;28;20463;-73
2023/01/11 03:36:00;;;;;;;12.15;2.25;;;;;;;8.48;100.00;100436.56;5090559;28;20044;-73
2023/01/11 03:38:40;;;;;;;13.52;2.25;;;;;;;8.45;100.00;100443.50;5094255;28;20571;-72
2023/01/11 03:41:17;;;;;;;12.98;2.42;;;;;;;8.39;100.00;100438.28;5085468;28;20025;-73
2023/01/11 03:43:43;;;;;;;10.43;2.22;;;;;;;8.37;100.00;100429.38;5082515;28;20028;-73
2023/01/11 03:46:12;;;;;;;16.48;2.70;;;;;;;8.33;100.00;100433.81;5095007;28;20047;-73
2023/01/11 03:49:05;;;;;;;18.75;2.63;;;;;;;8.27;100.00;100431.06;5095145;28;20031;-72
2023/01/11 03:51:33;;;;;;;12.15;1.98;;;;;;;8.24;100.00;100439.91;5080989;28;20044;-73
2023/01/11 03:54:01;;;;;;;15.52;2.55;;;;;;;8.23;100.00;100434.66;5077927;28;20032;-74
2023/01/11 03:57:05;;;;;;;16.10;2.70;;;;;;;8.17;100.00;100439.38;5095807;28;20035;-75
2023/01/11 03:59:31;;;;;;;14.85;2.13;;;;;;;8.13;100.00;100441.03;5094667;28;20388;-74
2023/01/11 04:01:56;;;;;;;14.45;2.25;;;;;;;8.11;100.00;100450.72;5095951;28;20032;-75
2023/01/11 04:04:22;;;;;;;15.02;2.40;;;;;;;8.06;100.00;100449.63;5091543;28;20051;-74
2023/01/11 04:06:48;;;;;;;16.15;2.20;;;;;;;8.01;100.00;100451.59;5093793;28;20057;-75
2023/01/11 04:09:13;;;;;;;19.98;2.38;;;;;;;7.98;100.00;100458.50;5094226;28;20384;-75
2023/01/11 04:11:39;;;;;;;20.00;2.65;;;;;;;7.97;100.00;100464.31;5093694;28;20497;-75
2023/01/11 04:14:04;;;;;;;16.98;2.78;;;;;;;7.91;100.00;100457.97;5090842;28;20460;-75
2023/01/11 04:16:30;;;;;;;12.90;2.08;;;;;;;7.88;100.00;100450.19;5094557;28;20031;-75
2023/01/11 04:18:55;;;;;;;13.13;1.92;;;;;;;7.83;100.00;100453.81;5094328;28;20024;-75
2023/01/11 04:21:21;;;;;;;18.02;2.20;;;;;;;7.77;100.00;100460.47;5095728;28;20106;-74
2023/01/11 04:23:46;;;;;;;13.13;2.20;;;;;;;7.76;100.00;100455.19;5092338;28;20027;-74
2023/01/11 04:26:12;;;;;;;13.98;2.33;;;;;;;7.73;100.00;100459.34;5094214;28;20028;-74
2023/01/11 04:28:37;;;;;;;12.75;2.22;;;;;;;7.71;100.00;100456.00;5095372;28;20081;-74
2023/01/11 04:31:03;;;;;;;14.93;2.33;;;;;;;7.65;100.00;100465.41;5095510;28;20053;-74
2023/01/11 04:33:28;;;;;;;11.68;2.10;;;;;;;7.61;100.00;100458.78;5095472;28;20098;-74
2023/01/11 04:35:54;;;;;;;11.55;1.95;;;;;;;7.60;100.00;100465.41;5094078;28;20032;-75
2023/01/11 04:38:23;;;;;;;11.85;2.70;;;;;;;7.52;100.00;100465.94;5094965;28;20032;-74
2023/01/11 04:42:16;;;;;;;15.02;2.33;;;;;;;7.46;100.00;100470.63;5099034;28;20059;-74
2023/01/11 04:43:34;;;;;;;10.80;2.20;;;;;;;7.45;100.00;100476.47;5094992;28;20031;-74
2023/01/11 04:46:00;;;;;;;12.15;2.17;;;;;;;7.39;100.00;100481.97;5073875;28;20476;-74
2023/01/11 04:48:25;;;;;;;14.25;2.65;;;;;;;7.38;100.00;100472.03;5099007;28;20027;-74
2023/01/11 04:50:51;;;;;;;16.25;2.47;;;;;;;7.34;100.00;100461.78;5097794;28;20038;-74
2023/01/11 04:53:16;;;;;;;11.68;2.13;;;;;;;7.30;100.00;100466.19;5097347;28;20476;-74
2023/01/11 04:55:42;;;;;;;10.60;2.00;;;;;;;7.28;100.00;100480.28;5096722;28;20035;-74
2023/01/11 04:58:07;;;;;;;10.65;1.85;;;;;;;7.24;100.00;100479.16;5093725;28;20035;-74
2023/01/11 05:00:33;;;;;;;18.98;2.60;;;;;;;7.19;100.00;100487.47;5095181;28;20168;-74
2023/01/11 05:02:58;;;;;;;17.00;2.90;;;;;;;7.16;100.00;100496.28;5094976;28;20032;-74
2023/01/11 05:05:24;;;;;;;16.20;2.58;;;;;;;7.11;100.00;100496.28;5088682;28;20027;-74
2023/01/11 05:07:49;;;;;;;13.90;2.40;;;;;;;7.07;100.00;100497.91;5094929;28;20154;-74
2023/01/11 05:10:15;;;;;;;11.27;2.90;;;;;;;7.02;100.00;100504.25;5093489;28;20061;-74
2023/01/11 05:12:41;;;;;;;10.82;3.03;;;;;;;6.99;100.00;100515.00;5088216;28;20024;-74
2023/01/11 05:15:07;;;;;;;12.93;2.80;;;;;;;6.97;100.00;100522.75;5095154;28;20031;-74
2023/01/11 05:17:32;;;;;;;14.07;3.05;;;;;;;6.93;100.00;100539.00;5073838;28;20036;-74
2023/01/11 05:19:58;;;;;;;13.82;3.08;;;;;;;6.90;100.00;100545.06;5093618;28;20024;-74
2023/01/11 05:22:23;;;;;;;14.35;3.15;;;;;;;6.84;100.00;100535.91;5094793;28;20032;-74
2023/01/11 05:24:49;;;;;;;11.73;2.92;;;;;;;6.80;100.00;100543.09;5080558;28;20577;-74
2023/01/11 05:27:14;;;;;;;18.05;3.03;;;;;;;6.78;100.00;100541.69;5093086;28;20508;-74
2023/01/11 05:29:40;;;;;;;16.58;2.92;;;;;;;6.74;100.00;100555.19;5094873;28;20028;-74
2023/01/11 05:32:05;;;;;;;14.43;3.28;;;;;;;6.70;100.00;100562.34;5094760;28;20032;-73
2023/01/11 05:34:31;;;;;;;15.13;3.15;;;;;;;6.65;100.00;100565.06;5088711;28;20097;-74
2023/01/11 05:36:56;;;;;;;13.10;2.60;;;;;;;6.61;100.00;100559.25;5093308;28;20076;-74
2023/01/11 05:39:22;;;;;;;15.13;3.08;;;;;;;6.59;100.00;100568.91;5093579;28;20036;-74
2023/01/11 05:41:48;;;;;;;16.40;2.90;;;;;;;6.56;100.00;100558.41;5093798;28;20027;-74
2023/01/11 05:46:58;;;;;;;14.85;2.78;;;;;;;6.50;100.00;100568.56;5083289;28;20039;-74
2023/01/11 05:49:23;;;;;;;19.70;3.05;;;;;;;6.44;100.00;100567.69;5094693;28;20480;-74
2023/01/11 05:51:49;;;;;;;9.27;2.30;;;;;;;6.41;100.00;100571.00;5094632;28;20035;-74
2023/01/11 05:54:14;;;;;;;19.75;3.22;;;;;;;6.38;100.00;100584.47;5093078;28;20036;-74
2023/01/11 05:56:41;;;;;;;14.82;2.83;;;;;;;6.33;100.00;100579.75;5093367;28;20032;-74
2023/01/11 05:59:07;;;;;;;11.07;2.60;;;;;;;6.31;100.00;100592.97;5094464;28;20392;-74
2023/01/11 06:01:32;;;;;;;15.55;2.88;;;;;;;6.28;100.00;100598.19;5076671;28;20032;-74
2023/01/11 06:03:58;;;;;;;10.88;2.95;;;;;;;6.27;100.00;100605.66;5075936;28;20028;-74
2023/01/11 06:06:23;;;;;;;15.90;3.03;;;;;;;6.19;100.00;100593.16;5092658;28;20032;-74
2023/01/11 06:08:49;;;;;;;18.08;3.03;;;;;;;6.19;100.00;100592.34;5097838;28;20039;-74
2023/01/11 06:11:14;;;;;;;11.05;2.97;;;;;;;6.17;100.00;100602.78;5097985;28;20028;-74
2023/01/11 06:13:40;;;;;;;15.40;3.40;;;;;;;6.13;100.00;100612.66;5092732;28;20398;-74
2023/01/11 06:16:08;;;;;;;20.88;3.58;;;;;;;6.10;100.00;100636.09;5086747;28;20074;-74
2023/01/11 06:18:38;;;;;;;12.52;2.97;;;;;;;6.08;100.00;100638.28;5096751;28;20078;-74
2023/01/11 06:21:03;;;;;;;9.98;2.40;;;;;;;6.04;100.00;100651.78;5096639;28;20032;-74
2023/01/11 06:23:33;;;;;;;10.75;2.72;;;;;;;6.01;100.00;100654.19;5096312;28;20040;-74
2023/01/11 06:26:06;;;;;;;15.57;2.80;;;;;;;5.98;100.00;100660.22;5096649;28;20102;-74
2023/01/11 06:28:32;;;;;;;15.80;2.90;;;;;;;5.95;100.00;100658.00;5097767;28;20496;-74
2023/01/11 06:30:57;;;;;;;14.18;2.60;;;;;;;5.92;100.00;100659.31;5079287;28;20028;-74
2023/01/11 06:33:24;;;;;;;12.27;2.47;;;;;;;5.88;100.00;100649.91;5096413;28;20035;-74
2023/01/11 06:35:50;;;;;;;12.85;3.13;;;;;;;5.87;100.00;100662.00;5097849;28;20039;-74
2023/01/11 06:38:15;;;;;;;17.17;2.67;;;;;;;5.84;100.00;100659.78;5097325;28;20036;-74
2023/01/11 06:40:41;;;;;;;14.52;2.65;;;;;;;5.80;100.00;100650.38;5095960;28;20055;-74
2023/01/11 06:43:07;;;;;;;12.80;2.20;;;;;;;5.80;100.00;100650.38;5096237;28;20573;-74
2023/01/11 06:45:33;;;;;;;14.05;3.25;;;;;;;5.78;100.00;100658.88;5087281;28;20032;-74
2023/01/11 06:47:58;;;;;;;17.15;2.78;;;;;;;5.72;100.00;100670.94;5097346;28;20048;-74
2023/01/11 06:50:24;;;;;;;16.17;2.90;;;;;;;5.71;100.00;100684.97;5097342;28;20520;-74
2023/01/11 06:52:53;;;;;;;21.38;2.72;;;;;;;5.70;100.00;100686.06;5097138;28;20053;-74
2023/01/11 06:55:19;;;;;;;12.48;2.67;;;;;;;5.66;100.00;100690.44;5096211;28;20412;-74
2023/01/11 06:57:44;;;;;;;14.60;2.50;;;;;;;5.65;100.00;100697.03;5097101;28;20035;-74
2023/01/11 07:00:10;;;;;;;18.38;3.38;;;;;;;5.62;100.00;100705.81;5095967;28;20028;-74
2023/01/11 07:02:36;;;;;;;13.50;2.50;;;;;;;5.59;100.00;100718.19;5096056;28;20028;-74
2023/01/11 07:05:01;;;;;;;12.68;2.22;;;;;;;5.56;100.00;100716.75;5092875;28;20032;-74
2023/01/11 07:07:27;;;;;;;12.70;2.42;;;;;;;5.52;100.00;100718.38;5095956;28;20035;-74
2023/01/11 07:09:53;;;;;;;14.50;2.50;;;;;;;5.50;100.00;100726.06;5096848;28;20032;-74
2023/01/11 07:12:19;;;;;;;19.00;2.67;;;;;;;5.49;100.00;100727.16;5090290;28;20153;-74
2023/01/11 07:14:44;;;;;;;10.48;2.15;;;;;;;5.48;100.00;100725.47;5097063;28;20047;-75
2023/01/11 07:17:10;;;;;;;16.67;2.65;;;;;;;5.45;100.00;100736.19;5078321;28;20031;-74
2023/01/11 07:19:35;;;;;;;11.85;2.78;;;;;;;5.43;100.00;100735.59;5098352;28;20036;-74
2023/01/11 07:22:01;;;;;;;11.80;2.35;;;;;;;5.41;100.00;100737.78;5064466;28;20029;-74
2023/01/11 07:24:27;;;;;;;18.05;3.17;;;;;;;5.39;100.00;100746.28;5096391;28;20021;-74
2023/01/11 07:26:54;;;;;;;11.98;2.33;;;;;;;5.41;100.00;100749.63;5089525;28;20025;-74
2023/01/11 07:29:20;;;;;;;14.40;2.15;;;;;;;5.35;100.00;100739.63;5096842;28;20143;-74
2023/01/11 07:31:46;;;;;;;13.50;2.40;;;;;;;5.32;100.00;100749.25;5097792;28;20057;-74
2023/01/11 07:34:11;;;;;;;15.02;3.50;;;;;;;5.30;100.00;100743.13;5098642;28;20106;-74
2023/01/11 07:36:38;;;;;;;14.48;2.92;;;;;;;5.28;100.00;100750.81;5098356;28;20062;-74
2023/01/11 07:39:04;;;;;;;11.52;2.25;;;;;;;5.26;100.00;100752.16;5094300;28;20036;-74
2023/01/11 07:44:14;;;;;;;16.20;2.60;;;;;;;5.21;100.00;100763.09;5085780;28;20115;-74
2023/01/11 07:46:39;;;;;;;17.95;2.45;;;;;;;5.19;100.00;100757.03;5073418;28;20066;-74
2023/01/11 07:49:05;;;;;;;14.90;2.97;;;;;;;5.18;100.00;100758.91;5087306;28;20028;-74
2023/01/11 07:51:30;;;;;;;16.83;2.80;;;;;;;5.16;100.00;100772.13;5096199;28;20047;-74
2023/01/11 07:53:56;;;;;;;13.85;2.08;;;;;;;5.14;100.00;100772.34;5095873;28;20027;-74
2023/01/11 07:56:21;;;;;;;12.05;2.08;;;;;;;5.12;100.00;100773.69;5093662;28;20024;-74
2023/01/11 07:58:47;;;;;;;14.98;2.45;;;;;;;5.10;100.00;100781.38;5088474;28;20028;-74
2023/01/11 08:01:12;;;;;;;18.38;2.50;;;;;;;5.08;100.00;100784.38;5095965;28;20028;-73
2023/01/11 08:03:37;;;;;;;19.13;3.17;;;;;;;5.08;100.00;100783.56;5095984;28;20032;-74
2023/01/11 08:06:03;;;;;;;19.05;2.90;;;;;;;5.01;100.00;100789.22;5080776;28;20043;-74
2023/01/11 08:08:29;;;;;;;16.17;2.47;;;;;;;5.00;100.00;100801.31;5081482;28;20036;-74
2023/01/11 08:16:22;;;;;;;18.10;2.80;;;;;;;4.97;100.00;100793.56;5084415;28;20439;-74
2023/01/11 08:18:52;;;;;;;14.55;2.50;;;;;;;4.97;100.00;100809.25;5095608;28;20027;-74
2023/01/11 08:21:17;;;;;;;14.40;2.35;;;;;;;4.96;100.00;100808.41;5095396;28;20087;-74
2023/01/11 08:23:43;;;;;;;21.45;2.45;;;;;;;4.95;100.00;100809.47;5095372;28;20527;-74
2023/01/11 08:26:08;;;;;;;19.50;3.40;;;;;;;4.95;100.00;100808.66;5095543;28;20031;-74
2023/01/11 08:28:36;;;;;;;19.45;3.28;;;;;;;4.92;100.00;100813.56;5093443;28;20036;-78
2023/01/11 08:31:07;;;;;;;14.70;2.83;;;;;;;4.90;100.00;100817.66;5094363;28;20032;-74
2023/01/11 08:33:32;;;;;;;10.70;2.60;;;;;;;4.86;100.00;100811.81;5095448;28;20027;-74
2023/01/11 08:35:59;;;;;;;20.95;3.33;;;;;;;4.85;100.00;100815.66;5095476;28;20032;-74
2023/01/11 08:38:24;;;;;;;17.42;3.72;;;;;;;4.86;100.00;100831.06;5075219;28;20039;-74
2023/01/11 08:40:50;;;;;;;12.07;2.38;;;;;;;4.88;100.00;100836.34;5095491;28;20031;-74
2023/01/11 08:43:15;;;;;;;15.75;3.22;;;;;;;4.85;100.00;100834.09;5093882;28;20027;-74
2023/01/11 08:45:41;;;;;;;23.08;4.13;;;;;;;4.86;100.00;100844.84;5067907;28;20035;-74
2023/01/11 08:48:06;;;;;;;15.63;2.85;;;;;;;4.87;100.00;100848.41;5090649;28;20061;-74
2023/01/11 08:50:32;;;;;;;15.55;3.17;;;;;;;4.91;100.00;100855.13;5094081;28;20028;-74
2023/01/11 08:52:57;;;;;;;18.50;3.25;;;;;;;4.93;100.00;100861.19;5093810;28;20028;-74
2023/01/11 08:55:22;;;;;;;14.35;3.10;;;;;;;4.99;100.00;100854.72;5085511;28;20028;-74
2023/01/11 08:57:48;;;;;;;18.27;3.15;;;;;;;5.04;100.00;100864.94;5094603;28;20035;-74
2023/01/11 09:00:14;;;;;;;17.83;2.85;;;;;;;5.10;100.00;100864.81;5095001;28;20028;-74
2023/01/11 09:02:39;;;;;;;16.10;2.65;;;;;;;5.17;100.00;100864.63;5095366;28;20088;-75
2023/01/11 09:05:05;;;;;;;22.48;3.25;;;;;;;5.26;100.00;100874.16;5083608;28;20029;-68
2023/01/11 09:07:31;;;;;;;14.80;3.00;;;;;;;5.31;100.00;100870.66;5095006;28;20062;-74
2023/01/11 09:09:57;;;;;;;18.55;3.13;;;;;;;5.44;100.00;100875.00;5093580;28;20528;-74
2023/01/11 09:12:22;;;;;;;17.00;3.00;;;;;;;5.50;100.00;100871.25;5089047;28;20033;-75
2023/01/11 09:14:48;;;;;;;23.63;3.42;;;;;;;5.59;100.00;100865.03;5087879;28;20036;-75
2023/01/11 09:17:14;;;;;;;21.20;4.30;;;;;;;5.68;100.00;100870.94;5094816;28;20039;-75
2023/01/11 09:19:39;;;;;;;23.58;3.88;;;;;;;5.78;100.00;100867.53;5084376;28;20129;-75
2023/01/11 09:22:04;;;;;;;18.48;3.35;;;;;;;5.88;100.00;100869.56;5090267;28;20040;-74
2023/01/11 09:24:30;;;;;;;17.65;3.67;;;;;;;5.95;100.00;100873.03;5094606;28;20024;-75
2023/01/11 09:26:59;;;;;;;13.80;2.80;;;;;;;6.08;100.00;100866.31;5094719;28;20036;-75
2023/01/11 09:29:24;;;;;;;21.38;3.45;;;;;;;6.16;100.00;100887.94;5087088;28;20024;-74
2023/01/11 09:31:50;;;;;;;19.52;3.40;;;;;;;6.27;100.00;100895.25;5093566;28;20111;-76
2023/01/11 09:34:15;;;;;;;17.33;3.08;;;;;;;6.37;100.00;100900.06;5076667;28;20089;-75
2023/01/11 09:36:41;;;;;;;15.15;3.03;;;;;;;6.45;100.00;100900.44;5093450;28;20040;-75
2023/01/11 09:39:10;;;;;;;21.40;3.00;;;;;;;6.55;100.00;100909.94;5093568;28;20028;-75
2023/01/11 09:42:05;;;;;;;16.73;3.33;;;;;;;6.65;100.00;100921.09;5080800;28;20058;-75
2023/01/11 09:44:32;;;;;;;21.20;3.13;;;;;;;6.74;100.00;100916.78;5083447;28;20028;-75
2023/01/11 09:47:24;;;;;;;19.38;3.13;;;;;;;6.86;100.00;100923.00;5097305;28;20034;-75
2023/01/11 09:49:54;;;;;;;22.60;3.35;;;;;;;6.96;100.00;100915.91;5098477;28;20032;-75
2023/01/11 09:52:32;;;;;;;26.00;3.95;;;;;;;7.07;100.00;100926.78;5097191;28;20553;-75
2023/01/11 09:54:57;;;;;;;26.95;3.58;;;;;;;7.18;100.00;100924.97;5064019;28;20103;-75
2023/01/11 09:57:29;;;;;;;21.38;3.58;;;;;;;7.28;100.00;100922.31;5068403;28;20370;-75
2023/01/11 10:00:13;;;;;;;27.42;3.35;;;;;;;7.39;100.00;100913.03;5093550;28;20038;-75
2023/01/11 10:03:25;;;;;;;27.08;4.30;;;;;;;7.50;100.00;100922.25;5081480;28;20024;-75
2023/01/11 10:05:59;;;;;;;25.05;4.13;;;;;;;7.63;100.00;100932.00;5088085;28;20048;-75
2023/01/11 10:08:38;;;;;;;20.50;3.53;;;;;;;7.74;100.00;100944.81;5094354;28;20070;-75
2023/01/11 10:11:29;;;;;;;25.60;5.00;;;;;;;7.86;100.00;100950.16;5095069;28;20058;-75
2023/01/11 10:14:24;;;;;;;17.67;3.53;;;;;;;7.98;100.00;100969.34;5090520;28;20055;-75
2023/01/11 10:17:16;;;;;;;20.00;3.33;;;;;;;8.11;100.00;100974.41;5097942;28;20561;-75
2023/01/11 10:19:47;;;;;;;29.35;4.28;;;;;;;8.20;100.00;100967.28;5092304;28;20043;-75
2023/01/11 10:22:16;;;;;;;18.20;3.22;;;;;;;8.31;100.00;100972.88;5080362;28;20112;-75
2023/01/11 10:24:50;;;;;;;27.02;3.90;;;;;;;8.42;100.00;100971.88;5096148;28;20036;-75
2023/01/11 10:27:32;;;;;;;18.15;3.53;;;;;;;8.53;100.00;100976.34;5091197;28;20024;-76
2023/01/11 10:30:32;;;;;;;27.40;3.50;;;;;;;8.62;100.00;100976.66;5077360;28;20044;-75
2023/01/11 10:33:33;;;;;;;22.02;3.20;;;;;;;8.74;100.00;100982.81;5096735;28;20080;-75
2023/01/11 10:38:49;;;;;;;22.10;3.88;;;;;;;8.96;100.00;100985.38;5097198;28;20069;-75
2023/01/11 10:41:40;;;;;;;30.70;4.22;;;;;;;9.08;100.00;100980.47;5097257;28;20059;-75
2023/01/11 10:44:17;;;;;;;28.00;3.75;;;;;;;9.17;100.00;100970.50;5078550;28;20027;-75
2023/01/11 10:46:49;;;;;;;20.08;3.83;;;;;;;9.27;100.00;100968.84;5095405;28;20071;-75
2023/01/11 10:49:42;;;;;;;25.52;4.43;;;;;;;9.37;100.00;100969.69;5079832;28;20050;-75
2023/01/11 10:52:31;;;;;;;33.10;3.63;;;;;;;9.46;100.00;100971.94;5095063;28;20031;-75
2023/01/11 10:54:59;;;;;;;22.92;3.47;;;;;;;9.55;100.00;100971.09;5096760;28;20038;-75
2023/01/11 10:57:36;;;;;;;22.27;3.05;;;;;;;9.62;100.00;100966.13;5097155;28;20077;-75
2023/01/11 11:00:12;;;;;;;22.50;3.63;;;;;;;9.71;100.00;100968.34;5097077;28;20028;-75
2023/01/11 11:03:08;;;;;;;18.83;3.45;;;;;;;9.80;100.00;100966.66;5090700;28;20035;-75
2023/01/11 11:05:46;;;;;;;22.67;3.17;;;;;;;9.89;100.00;100962.25;5086072;28;20036;-75
2023/01/11 11:08:25;;;;;;;24.13;3.10;;;;;;;9.94;100.00;100959.44;5089676;28;20047;-75
2023/01/11 11:11:14;;;;;;;28.00;3.42;;;;;;;10.02;100.00;100952.50;5090698;28;20464;-75
2023/01/11 11:13:48;;;;;;;26.45;4.00;;;;;;;10.11;100.00;100956.38;5089060;28;20036;-75
2023/01/11 11:16:18;;;;;;;23.90;3.22;;;;;;;10.20;100.00;100959.44;5092926;28;20441;-75
2023/01/11 11:18:44;;;;;;;29.48;3.33;;;;;;;10.20;100.00;100964.97;5095453;28;20167;-75
2023/01/11 11:21:28;;;;;;;34.08;4.20;;;;;;;10.27;100.00;100954.44;5096604;28;20061;-75
2023/01/11 11:23:56;;;;;;;24.50;3.45;;;;;;;10.35;100.00;100953.84;5075938;28;20036;-75
2023/01/11 11:26:22;;;;;;;28.75;4.00;;;;;;;10.40;100.00;100953.03;5078214;28;20032;-75
2023/01/11 11:29:01;;;;;;;24.50;3.38;;;;;;;10.47;100.00;100950.75;5078316;28;20655;-75
2023/01/11 11:31:28;;;;;;;26.50;4.10;;;;;;;10.54;100.00;100947.72;5058903;28;20029;-75
2023/01/11 11:33:53;;;;;;;22.83;3.10;;;;;;;10.56;100.00;100948.22;5078564;28;20028;-75
2023/01/11 11:36:19;;;;;;;26.63;3.20;;;;;;;10.65;100.00;100952.09;5094804;28;20055;-75
2023/01/11 11:39:10;;;;;;;33.08;4.13;;;;;;;10.69;100.00;100948.44;5094614;28;20024;-75
2023/01/11 11:41:49;;;;;;;27.50;4.07;;;;;;;10.75;100.00;100940.94;5096066;28;20024;-75
2023/01/11 11:44:20;;;;;;;30.35;3.95;;;;;;;10.82;100.00;100955.34;5078097;28;20028;-74
2023/01/11 11:47:00;;;;;;;28.92;3.88;;;;;;;10.91;100.00;100953.63;5091336;28;20393;-67
2023/01/11 11:49:27;;;;;;;32.83;4.43;;;;;;;10.98;100.00;100952.50;5095039;28;20482;-73
2023/01/11 11:51:52;;;;;;;24.58;4.18;;;;;;;11.05;100.00;100955.78;5094912;28;20059;-73
2023/01/11 11:54:29;;;;;;;35.45;4.90;;;;;;;11.11;100.00;100952.69;5094474;28;20032;-73
2023/01/11 11:56:55;;;;;;;27.23;4.70;;;;;;;11.16;100.00;100960.19;5094688;28;20099;-73
2023/01/11 11:59:22;;;;;;;24.20;3.92;;;;;;;11.18;100.00;100964.34;5094785;28;20034;-75